To NAV CANADA Home Page Login to a new session Search on AWWS site Feedback and Comments Disclaimer Vers la page française équivalente Tips FAQ What's new on the site To the Forecasts and Observations / NOTAM section To "File a Flight Plan" website Publications and other links Update of the User's profile FIC Telephone Numbers My Weather Data Folder Route Weather Data Regional Weather Data Local Weather Data To the Forecasts and Observations / NOTAM section
Request Generated 04/18/2014 at 05:29:54 UTC . Weather information available at that time is displayed.

METAR/TAF

STONY RAPIDS/SK    (show WxCam)

METAR CYSF 180500Z AUTO 13003KT 9SM CLR M08/M15 A3018 RMK SLP242=
METAR CYSF 180400Z AUTO 11003KT 9SM CLR M05/M13 A3018 RMK SLP242=
METAR CYSF 180300Z AUTO 11004KT 9SM CLR M01/M15 A3018 RMK SLP242=

TAF CYSF 172338Z 1800/1812 VRB03KT P6SM SKC
RMK FCST BASED ON AUTO OBS. NXT FCST BY 180600Z=
Your time UTC time
Weather data provided by Environment Canada and NAV CANADA